Time;durP1;ratioP1;P1;durP2;ratioP2;P2;SDS_P1;SDS_P2;PMS_P1;PMS_P2;Temp;Humidity;BMP_temperature;BMP_pressure;BME280_temperature;BME280_humidity;BME280_pressure;Samples;Min_cycle;Max_cycle;Signal;HPM_P1;HPM_P2
2021/12/06 00:01:49;;;;;;;15.80;14.30;;;3.10;1.00;4.50;99855.00;;;;5015657;28;20486;-77
2021/12/06 00:04:25;;;;;;;12.43;11.33;;;3.00;1.00;4.50;99862.00;;;;4984476;28;20462;-76
2021/12/06 00:06:58;;;;;;;13.53;12.23;;;3.00;1.00;4.50;99851.00;;;;4988058;28;20462;-77
2021/12/06 00:09:29;;;;;;;13.47;12.00;;;2.90;1.00;4.60;99855.00;;;;5000718;28;20536;-77
2021/12/06 00:12:02;;;;;;;11.67;10.73;;;3.00;1.00;4.60;99847.00;;;;4991403;28;20491;-77
2021/12/06 00:14:36;;;;;;;17.77;16.17;;;3.00;1.00;4.50;99858.00;;;;4995107;28;20974;-77
2021/12/06 00:17:07;;;;;;;19.13;17.43;;;2.90;1.00;4.40;99844.00;;;;4983741;28;20446;-77
2021/12/06 00:19:37;;;;;;;17.90;15.83;;;2.90;1.00;4.40;99865.00;;;;4991269;28;22064;-77
2021/12/06 00:22:08;;;;;;;17.60;15.80;;;2.90;1.00;4.40;99860.00;;;;4994975;28;20477;-76
2021/12/06 00:24:37;;;;;;;14.30;12.87;;;2.80;1.00;4.40;99845.00;;;;4996965;28;20454;-76
2021/12/06 00:27:07;;;;;;;15.93;14.30;;;2.80;1.00;4.40;99833.00;;;;4994631;28;20451;-77
2021/12/06 00:29:38;;;;;;;14.60;13.30;;;2.90;1.00;4.50;99873.00;;;;4992446;28;20538;-77
2021/12/06 00:32:07;;;;;;;17.63;15.50;;;2.90;1.00;4.50;99867.00;;;;4995106;28;20445;-77
2021/12/06 00:34:37;;;;;;;15.70;14.40;;;2.80;1.00;4.60;99884.00;;;;5004568;28;20462;-76
2021/12/06 00:37:17;;;;;;;16.20;14.50;;;2.80;1.00;4.60;99817.00;;;;4998876;28;20455;-75
2021/12/06 00:39:50;;;;;;;16.80;15.40;;;2.90;1.00;4.70;99841.00;;;;5003747;28;20538;-77
2021/12/06 00:42:20;;;;;;;17.77;16.03;;;2.80;1.00;4.70;99870.00;;;;5030762;28;20554;-77
2021/12/06 00:44:50;;;;;;;16.50;15.10;;;2.80;1.00;4.80;99894.00;;;;5004101;28;20443;-76
2021/12/06 00:47:19;;;;;;;15.87;14.37;;;3.00;1.00;4.90;99894.00;;;;5008690;28;20446;-77
2021/12/06 00:49:49;;;;;;;17.40;15.80;;;3.00;1.00;4.90;99901.00;;;;5015524;28;20457;-76
2021/12/06 00:52:19;;;;;;;16.60;15.03;;;3.10;1.00;5.00;99905.00;;;;5014469;28;20435;-76
2021/12/06 00:54:48;;;;;;;15.70;14.20;;;3.10;1.00;5.10;99890.00;;;;5018540;28;20466;-76
2021/12/06 00:57:17;;;;;;;14.80;13.40;;;3.20;1.00;5.20;99875.00;;;;5014039;28;20503;-77
2021/12/06 00:59:46;;;;;;;15.90;14.37;;;3.20;1.00;5.30;99920.00;;;;4989600;28;20467;-77
2021/12/06 01:02:16;;;;;;;15.07;13.67;;;3.30;1.00;5.30;99853.00;;;;5005291;28;20850;-76
2021/12/06 01:04:48;;;;;;;14.87;13.00;;;3.40;1.00;5.40;99899.00;;;;5090661;28;20483;-76
2021/12/06 01:07:17;;;;;;;14.60;13.30;;;3.50;1.00;5.40;99906.00;;;;5074956;28;20526;-76
2021/12/06 01:09:46;;;;;;;14.10;12.70;;;3.50;1.00;5.50;99907.00;;;;5013440;28;20489;-76
2021/12/06 01:12:15;;;;;;;14.77;13.37;;;3.60;1.00;5.50;99917.00;;;;4992222;28;20538;-76
2021/12/06 01:14:44;;;;;;;14.27;13.07;;;3.60;1.00;5.50;99916.00;;;;4999119;28;20542;-77
2021/12/06 01:17:14;;;;;;;14.40;13.07;;;3.60;1.00;5.50;99927.00;;;;5073664;28;20795;-76
2021/12/06 01:19:43;;;;;;;13.90;12.60;;;3.60;1.00;5.60;99932.00;;;;5090156;28;20677;-76
2021/12/06 01:22:22;;;;;;;14.73;12.17;;;3.50;1.00;5.60;99933.00;;;;5063816;28;20478;-76
2021/12/06 01:24:56;;;;;;;14.73;13.23;;;3.50;1.00;5.40;99944.00;;;;4992501;28;20439;-76
2021/12/06 01:27:39;;;;;;;14.63;13.20;;;3.50;1.00;5.60;99954.00;;;;4998229;28;20997;-76
2021/12/06 01:30:31;;;;;;;14.17;12.77;;;3.50;1.00;5.60;99943.00;;;;5005917;28;21008;-76
2021/12/06 01:41:26;;;;;;;14.13;12.83;;;3.60;1.00;5.70;99958.00;;;;4990584;28;20470;-76
2021/12/06 01:44:14;;;;;;;14.70;13.17;;;3.60;1.00;5.70;99966.00;;;;4993172;28;20451;-77
2021/12/06 01:46:53;;;;;;;14.27;12.90;;;3.60;1.00;5.70;99969.00;;;;5052582;28;20498;-76
2021/12/06 01:49:25;;;;;;;14.10;12.80;;;3.60;1.00;5.80;99974.00;;;;5004720;28;20541;-77
2021/12/06 01:51:58;;;;;;;14.53;13.23;;;3.60;1.00;5.80;99962.00;;;;5091656;28;20578;-77
2021/12/06 01:54:29;;;;;;;15.00;13.67;;;3.70;1.00;5.80;99970.00;;;;5006201;28;20478;-78
2021/12/06 01:56:57;;;;;;;14.77;13.23;;;3.70;1.00;5.80;99964.00;;;;5016900;28;20451;-77
2021/12/06 01:59:27;;;;;;;14.07;12.70;;;3.70;1.00;5.80;99992.00;;;;5027307;28;20998;-76
2021/12/06 02:01:56;;;;;;;15.03;13.60;;;3.80;1.00;5.80;99982.00;;;;5019349;28;20463;-77
2021/12/06 02:04:29;;;;;;;16.13;14.70;;;3.80;1.00;5.80;99993.00;;;;5091695;28;20455;-77
2021/12/06 02:06:59;;;;;;;16.03;14.40;;;3.80;1.00;5.80;99982.00;;;;4989964;28;20459;-77
2021/12/06 02:09:29;;;;;;;14.67;13.27;;;3.80;1.00;5.80;99987.00;;;;5006808;28;20564;-76
2021/12/06 02:12:04;;;;;;;14.87;13.43;;;3.80;1.00;5.80;99985.00;;;;5010405;28;20542;-76
2021/12/06 02:14:42;;;;;;;16.70;15.20;;;3.80;1.00;5.80;99969.00;;;;4990319;28;20552;-76
2021/12/06 02:17:18;;;;;;;16.57;15.17;;;3.80;1.00;5.80;99975.00;;;;5004757;28;20465;-76
2021/12/06 02:19:52;;;;;;;18.00;16.10;;;3.80;1.00;5.80;99984.00;;;;4989533;28;20482;-76
2021/12/06 02:22:25;;;;;;;14.87;13.57;;;3.80;1.00;5.90;99986.00;;;;5017132;28;20472;-76
2021/12/06 02:24:58;;;;;;;15.73;14.23;;;3.80;1.00;5.90;99993.00;;;;5002541;28;20462;-76
2021/12/06 02:27:29;;;;;;;16.20;14.20;;;3.90;1.00;5.80;100001.00;;;;4998631;28;20538;-77
2021/12/06 02:30:01;;;;;;;14.30;12.90;;;3.90;1.00;5.90;99983.00;;;;5090013;28;20474;-76
2021/12/06 02:32:33;;;;;;;14.70;13.47;;;4.00;1.00;5.90;99988.00;;;;5025977;28;20525;-76
2021/12/06 02:35:01;;;;;;;15.67;14.37;;;4.00;1.00;5.90;99993.00;;;;4989977;28;20457;-76
2021/12/06 02:37:34;;;;;;;15.43;14.13;;;4.00;1.00;5.90;99988.00;;;;5011604;28;20450;-75
2021/12/06 02:40:12;;;;;;;16.20;14.50;;;3.90;1.00;5.90;99995.00;;;;5006363;28;20478;-76
2021/12/06 02:42:42;;;;;;;15.60;14.10;;;3.90;1.00;5.90;100001.00;;;;5009115;28;20467;-76
2021/12/06 02:45:14;;;;;;;15.43;14.03;;;3.90;1.00;5.90;99999.00;;;;5003195;28;20488;-76
2021/12/06 02:47:43;;;;;;;15.50;14.07;;;3.80;1.00;5.90;99993.00;;;;4995637;28;20450;-75
2021/12/06 02:50:14;;;;;;;15.23;13.80;;;4.00;1.00;5.90;100011.00;;;;5022902;28;20479;-77
2021/12/06 02:52:43;;;;;;;15.87;14.27;;;3.90;1.00;5.90;100000.00;;;;5017195;28;20538;-77
2021/12/06 02:55:29;;;;;;;14.80;13.60;;;3.90;1.00;5.90;100011.00;;;;5024078;28;20492;-76
2021/12/06 02:58:01;;;;;;;14.90;13.67;;;3.90;1.00;5.90;100011.00;;;;4993988;28;20490;-76
2021/12/06 03:00:31;;;;;;;15.40;14.00;;;3.80;1.00;5.90;100010.00;;;;4990464;28;20482;-76
2021/12/06 03:03:00;;;;;;;16.27;14.67;;;3.80;1.00;5.90;100013.00;;;;5015984;28;20649;-76
2021/12/06 03:05:29;;;;;;;14.70;13.40;;;3.80;1.00;5.90;100024.00;;;;5017948;28;20446;-76
2021/12/06 03:08:00;;;;;;;16.80;15.10;;;3.90;1.00;5.90;100027.00;;;;5093503;28;20451;-76
2021/12/06 03:10:30;;;;;;;16.47;14.13;;;3.90;1.00;5.90;100024.00;;;;4987986;28;20475;-76
2021/12/06 03:12:59;;;;;;;16.93;15.33;;;3.90;1.00;5.90;100037.00;;;;5095399;28;20910;-76
2021/12/06 03:15:28;;;;;;;16.80;14.90;;;3.80;1.00;5.90;100029.00;;;;5001304;28;20455;-76
2021/12/06 03:17:57;;;;;;;15.10;13.70;;;3.80;1.00;5.90;100055.00;;;;5101037;28;20451;-76
2021/12/06 03:20:26;;;;;;;15.40;14.00;;;3.80;1.00;5.90;100020.00;;;;5016607;28;20582;-76
2021/12/06 03:22:54;;;;;;;17.23;15.53;;;3.80;1.00;5.90;100032.00;;;;5015290;28;20473;-76
2021/12/06 03:25:24;;;;;;;15.87;14.30;;;3.80;1.00;5.90;100041.00;;;;4995170;28;21294;-77
2021/12/06 03:27:52;;;;;;;16.37;14.90;;;3.90;1.00;5.90;100036.00;;;;5041786;28;20458;-77
2021/12/06 03:30:22;;;;;;;16.27;14.77;;;3.90;1.00;5.90;100041.00;;;;5080170;28;20505;-76
2021/12/06 03:32:50;;;;;;;15.50;14.13;;;4.00;1.00;5.90;100031.00;;;;5011820;28;20467;-76
2021/12/06 03:35:18;;;;;;;16.30;14.77;;;3.90;1.00;5.90;100034.00;;;;5016291;28;20471;-76
2021/12/06 03:37:47;;;;;;;16.30;14.80;;;3.90;1.00;5.90;100047.00;;;;5010522;28;20451;-76
2021/12/06 03:40:16;;;;;;;15.80;14.30;;;4.00;1.00;5.90;100050.00;;;;5010288;28;20502;-77
2021/12/06 03:42:47;;;;;;;17.60;15.33;;;3.90;1.00;5.90;100057.00;;;;5014310;28;20670;-76
2021/12/06 03:45:16;;;;;;;17.00;15.47;;;3.90;1.00;5.80;100058.00;;;;4993754;28;20458;-76
2021/12/06 03:47:44;;;;;;;16.33;14.87;;;3.80;1.00;5.80;100056.00;;;;5003982;28;20872;-77
2021/12/06 03:50:13;;;;;;;16.80;15.10;;;3.80;1.00;5.80;100062.00;;;;5032927;28;20499;-77
2021/12/06 03:52:42;;;;;;;16.23;14.83;;;3.80;1.00;5.80;100070.00;;;;5020319;28;20453;-76
2021/12/06 03:55:12;;;;;;;17.00;15.40;;;3.80;1.00;5.80;100037.00;;;;4998090;28;20455;-76
2021/12/06 03:57:42;;;;;;;19.13;17.20;;;3.80;1.00;5.80;100036.00;;;;5028685;28;20863;-76
2021/12/06 04:00:16;;;;;;;18.23;16.53;;;3.70;1.00;5.80;100086.00;;;;5007643;28;20477;-76
2021/12/06 04:02:52;;;;;;;19.50;17.60;;;3.70;1.00;5.80;100082.00;;;;4991254;28;20620;-76
2021/12/06 04:05:22;;;;;;;21.63;19.33;;;3.70;1.00;5.70;100047.00;;;;5000272;28;20455;-75
2021/12/06 04:07:51;;;;;;;21.33;19.03;;;3.80;1.00;5.70;100063.00;;;;5005055;28;20484;-75
2021/12/06 04:10:20;;;;;;;23.90;20.77;;;3.80;1.00;5.70;100062.00;;;;5092430;28;20533;-75
2021/12/06 04:12:49;;;;;;;22.40;20.10;;;3.70;1.00;5.80;100087.00;;;;5000962;28;20470;-76
2021/12/06 04:15:20;;;;;;;21.00;18.73;;;3.70;1.00;5.70;100064.00;;;;4999861;28;20447;-75
2021/12/06 04:17:48;;;;;;;19.77;17.77;;;3.70;1.00;5.80;100080.00;;;;5091255;28;20449;-75
2021/12/06 04:20:18;;;;;;;17.63;15.93;;;3.70;1.00;5.70;100081.00;;;;5090812;28;20474;-75
2021/12/06 04:22:46;;;;;;;19.37;17.47;;;3.70;1.00;5.70;100098.00;;;;5025495;28;20515;-75
2021/12/06 04:25:18;;;;;;;19.13;17.33;;;3.60;1.00;5.70;100094.00;;;;5005809;28;20462;-75
2021/12/06 04:27:53;;;;;;;20.00;18.00;;;3.70;1.00;5.70;100091.00;;;;4991648;28;21015;-75
2021/12/06 04:30:26;;;;;;;17.00;15.23;;;3.70;1.00;5.70;100104.00;;;;5020831;28;20491;-76
2021/12/06 04:32:56;;;;;;;19.03;17.23;;;3.70;1.00;5.70;100093.00;;;;5007570;28;20473;-77
2021/12/06 04:35:28;;;;;;;17.20;15.80;;;3.70;1.00;5.70;100099.00;;;;5004317;28;20455;-76
2021/12/06 04:37:57;;;;;;;18.47;16.70;;;3.60;1.00;5.40;100115.00;;;;5006228;28;20963;-76
2021/12/06 04:40:27;;;;;;;16.93;15.23;;;3.70;1.00;5.60;100113.00;;;;5036798;28;20470;-76
2021/12/06 04:42:57;;;;;;;18.53;16.73;;;3.80;1.00;5.70;100110.00;;;;5092874;28;20474;-76
2021/12/06 04:45:27;;;;;;;18.40;16.80;;;3.70;1.00;5.70;100115.00;;;;4996909;28;20462;-76
2021/12/06 04:47:56;;;;;;;18.87;17.20;;;3.70;1.00;5.60;100096.00;;;;5030867;28;20546;-77
2021/12/06 04:50:31;;;;;;;22.27;19.97;;;3.70;1.00;5.60;100118.00;;;;4989787;28;20483;-76
2021/12/06 04:53:05;;;;;;;18.20;16.60;;;3.60;1.00;5.70;100130.00;;;;4986205;28;20459;-77
2021/12/06 04:55:41;;;;;;;19.10;17.30;;;3.60;1.00;5.60;100135.00;;;;5095088;28;20518;-76
2021/12/06 04:58:15;;;;;;;18.87;17.07;;;3.60;1.00;5.70;100141.00;;;;5006601;28;20993;-76
2021/12/06 05:00:52;;;;;;;18.67;16.97;;;3.60;1.00;5.70;100147.00;;;;4990384;28;20542;-76
2021/12/06 05:03:22;;;;;;;18.57;16.97;;;3.60;1.00;5.70;100160.00;;;;5001076;28;20479;-76
2021/12/06 05:05:57;;;;;;;19.57;17.87;;;3.60;1.00;5.60;100162.00;;;;5006449;28;20901;-76
2021/12/06 05:08:30;;;;;;;18.27;16.67;;;3.60;1.00;5.60;100151.00;;;;4991889;28;20457;-76
2021/12/06 05:11:01;;;;;;;19.10;17.40;;;3.60;1.00;5.70;100144.00;;;;4984437;28;21004;-75
2021/12/06 05:13:31;;;;;;;19.03;17.23;;;3.60;1.00;5.70;100157.00;;;;5019638;28;20450;-76
2021/12/06 05:16:02;;;;;;;18.87;17.27;;;3.60;1.00;5.60;100166.00;;;;4997884;28;20481;-76
2021/12/06 05:18:32;;;;;;;18.17;16.47;;;3.60;1.00;5.60;100161.00;;;;5101807;28;20472;-76
2021/12/06 05:21:01;;;;;;;18.90;17.20;;;3.60;1.00;5.50;100157.00;;;;5129453;28;20475;-77
2021/12/06 05:23:30;;;;;;;18.40;16.60;;;3.50;1.00;5.50;100155.00;;;;5040054;28;20463;-77
2021/12/06 05:25:59;;;;;;;17.33;15.90;;;3.60;1.00;5.50;100129.00;;;;5008730;28;20459;-77
2021/12/06 05:28:31;;;;;;;19.27;17.27;;;3.50;1.00;5.50;100159.00;;;;5019225;28;20510;-76
2021/12/06 05:31:02;;;;;;;20.13;18.23;;;3.60;1.00;5.50;100183.00;;;;5006954;28;20477;-77
2021/12/06 05:33:31;;;;;;;19.30;17.40;;;3.50;1.00;5.50;100185.00;;;;5000540;28;20467;-77
2021/12/06 05:36:04;;;;;;;17.80;16.00;;;3.50;1.00;5.50;100193.00;;;;5006929;28;20549;-77
2021/12/06 05:38:32;;;;;;;17.77;16.17;;;3.60;1.00;5.50;100194.00;;;;4991151;28;21962;-76
2021/12/06 05:41:01;;;;;;;17.53;16.00;;;3.50;1.00;5.50;100204.00;;;;4983160;28;20473;-76
2021/12/06 05:43:29;;;;;;;18.30;16.53;;;3.50;1.00;5.50;100201.00;;;;4991911;28;20474;-76
2021/12/06 05:45:59;;;;;;;17.93;16.13;;;3.50;1.00;5.50;100217.00;;;;5102600;28;20454;-77
2021/12/06 05:48:29;;;;;;;16.67;15.10;;;3.50;1.00;5.40;100207.00;;;;4988394;28;20475;-77
2021/12/06 05:50:58;;;;;;;17.07;15.47;;;3.50;1.00;5.40;100215.00;;;;4990032;28;20486;-77
2021/12/06 05:53:27;;;;;;;17.27;15.60;;;3.50;1.00;5.40;100209.00;;;;4992003;28;20568;-77
2021/12/06 05:55:56;;;;;;;16.10;14.53;;;3.50;1.00;5.40;100213.00;;;;4985981;28;20970;-77
2021/12/06 05:58:27;;;;;;;15.93;14.53;;;3.50;1.00;5.40;100223.00;;;;5021902;28;20537;-77
2021/12/06 06:00:57;;;;;;;18.07;16.20;;;3.50;1.00;5.40;100220.00;;;;4989527;28;20470;-77
2021/12/06 06:03:26;;;;;;;16.87;15.27;;;3.40;1.00;5.20;100200.00;;;;5021149;28;20461;-77
2021/12/06 06:05:56;;;;;;;17.00;15.40;;;3.40;1.00;5.40;100230.00;;;;4992051;28;20462;-77
2021/12/06 06:08:25;;;;;;;15.50;14.10;;;3.40;1.00;5.40;100222.00;;;;4985575;28;20454;-76
2021/12/06 06:10:54;;;;;;;16.43;14.57;;;3.40;1.00;5.40;100183.00;;;;5014399;28;20496;-76
2021/12/06 06:13:22;;;;;;;17.23;15.50;;;3.40;1.00;5.40;100234.00;;;;5012394;28;20521;-77
2021/12/06 06:15:51;;;;;;;18.03;15.33;;;3.50;1.00;5.40;100242.00;;;;5011226;28;20451;-77
2021/12/06 06:18:20;;;;;;;17.33;15.70;;;3.50;1.00;5.40;100236.00;;;;5017110;28;20527;-77
2021/12/06 06:20:51;;;;;;;18.23;16.53;;;3.50;1.00;5.40;100249.00;;;;5011392;28;20478;-77
2021/12/06 06:23:24;;;;;;;18.50;16.60;;;3.50;1.00;5.40;100257.00;;;;5011856;28;20457;-77
2021/12/06 06:25:52;;;;;;;17.40;15.60;;;3.50;1.00;5.50;100272.00;;;;5022647;28;20964;-77
2021/12/06 06:28:21;;;;;;;18.20;16.40;;;3.50;1.00;5.50;100262.00;;;;4996734;28;20804;-77
2021/12/06 06:30:49;;;;;;;17.17;15.50;;;3.40;1.00;5.50;100257.00;;;;5003377;28;20562;-76
2021/12/06 06:33:18;;;;;;;17.20;15.70;;;3.40;1.00;5.50;100254.00;;;;5001365;28;20451;-76
2021/12/06 06:35:47;;;;;;;18.73;16.57;;;3.50;1.00;5.50;100231.00;;;;4991318;28;20450;-76
2021/12/06 06:38:17;;;;;;;18.10;16.50;;;3.50;1.00;5.50;100263.00;;;;4977668;28;20491;-76
2021/12/06 06:40:47;;;;;;;17.47;15.77;;;3.50;1.00;5.50;100265.00;;;;4985344;28;20467;-76
2021/12/06 06:43:15;;;;;;;18.80;16.83;;;3.50;1.00;5.40;100277.00;;;;4991041;28;20950;-76
2021/12/06 06:45:43;;;;;;;18.77;16.87;;;3.40;1.00;5.40;100269.00;;;;4992450;28;21043;-76
2021/12/06 06:48:12;;;;;;;17.93;16.17;;;3.40;1.00;5.40;100279.00;;;;4991120;28;20813;-77
2021/12/06 06:50:41;;;;;;;19.13;17.43;;;3.40;1.00;5.40;100256.00;;;;4997606;28;20486;-77
2021/12/06 06:53:11;;;;;;;18.20;16.47;;;3.40;1.00;5.40;100283.00;;;;4997526;28;20473;-76
2021/12/06 06:55:39;;;;;;;18.90;16.93;;;3.40;1.00;5.40;100285.00;;;;5005815;28;20465;-76
2021/12/06 06:58:09;;;;;;;18.43;16.43;;;3.40;1.00;5.30;100267.00;;;;5106139;28;20459;-75
2021/12/06 07:00:39;;;;;;;19.70;17.80;;;3.40;1.00;5.30;100290.00;;;;5099529;28;20530;-77
2021/12/06 07:03:09;;;;;;;19.83;17.87;;;3.40;1.00;5.30;100294.00;;;;5099505;28;20411;-76
2021/12/06 07:05:40;;;;;;;19.87;17.77;;;3.40;1.00;5.30;100296.00;;;;5000176;28;20512;-77
2021/12/06 07:08:08;;;;;;;20.20;17.67;;;3.30;1.00;5.30;100305.00;;;;4991489;28;20982;-76
2021/12/06 07:10:37;;;;;;;20.93;18.27;;;3.30;1.00;5.40;100310.00;;;;4992415;28;20480;-77
2021/12/06 07:13:10;;;;;;;18.80;16.90;;;3.40;1.00;5.40;100326.00;;;;4993226;28;20563;-76
2021/12/06 07:15:40;;;;;;;20.13;18.10;;;3.40;1.00;5.40;100301.00;;;;4992783;28;20453;-76
2021/12/06 07:18:08;;;;;;;19.70;17.60;;;3.40;1.00;5.40;100324.00;;;;4993210;28;20451;-77
2021/12/06 07:20:37;;;;;;;20.00;18.13;;;3.40;1.00;5.40;100309.00;;;;5000010;28;20466;-76
2021/12/06 07:23:05;;;;;;;19.60;17.70;;;3.40;1.00;5.40;100306.00;;;;4991768;28;20447;-76
2021/12/06 07:25:35;;;;;;;20.93;18.80;;;3.40;1.00;5.50;100313.00;;;;4991555;28;20488;-76
2021/12/06 07:28:06;;;;;;;21.80;18.80;;;3.50;1.00;5.50;100312.00;;;;4992702;28;20439;-76
2021/12/06 07:30:35;;;;;;;19.90;17.90;;;3.50;1.00;5.50;100320.00;;;;4992620;28;20967;-76
2021/12/06 07:33:05;;;;;;;20.13;18.23;;;3.50;1.00;5.50;100321.00;;;;4992850;28;20947;-76
2021/12/06 07:35:33;;;;;;;21.53;19.47;;;3.60;1.00;5.40;100324.00;;;;5012620;22;20491;-77
2021/12/06 07:38:06;;;;;;;21.33;19.10;;;3.50;1.00;5.40;100324.00;;;;4971864;28;20435;-74
2021/12/06 07:40:35;;;;;;;20.97;18.90;;;3.50;1.00;5.50;100280.00;;;;5068837;28;20451;-76
2021/12/06 07:43:04;;;;;;;20.83;18.83;;;3.50;1.00;5.40;100320.00;;;;4980960;28;20495;-76
2021/12/06 07:45:32;;;;;;;21.13;19.13;;;3.50;1.00;5.50;100346.00;;;;4977974;28;20571;-76
2021/12/06 07:48:06;;;;;;;20.33;18.23;;;3.60;1.00;5.50;100346.00;;;;4981040;28;20801;-77
2021/12/06 07:50:35;;;;;;;20.67;18.50;;;3.60;1.00;5.60;100221.00;;;;4978559;28;20451;-76
2021/12/06 07:53:04;;;;;;;19.80;17.67;;;3.60;1.00;5.60;100217.00;;;;4978223;28;20458;-76
2021/12/06 07:55:34;;;;;;;20.20;18.03;;;3.60;1.00;5.70;100351.00;;;;4976311;28;20833;-76
2021/12/06 07:58:04;;;;;;;21.00;18.80;;;3.70;1.00;5.70;100351.00;;;;4975722;28;20475;-76
2021/12/06 08:00:41;;;;;;;20.40;18.40;;;3.60;1.00;5.70;100308.00;;;;4976329;28;20458;-76
2021/12/06 08:03:12;;;;;;;20.93;18.93;;;3.70;1.00;5.70;100144.00;;;;5046276;28;20451;-75
2021/12/06 08:05:45;;;;;;;19.80;18.00;;;3.70;1.00;5.70;100319.00;;;;4975484;28;20487;-77
2021/12/06 08:08:17;;;;;;;22.07;19.77;;;3.80;1.00;5.80;100342.00;;;;4973546;28;20448;-77
2021/12/06 08:10:50;;;;;;;19.73;17.77;;;3.80;1.00;5.80;100348.00;;;;5062766;28;20954;-77
2021/12/06 08:13:22;;;;;;;18.73;16.93;;;3.80;1.00;5.90;100350.00;;;;5048971;28;20491;-75
2021/12/06 08:15:54;;;;;;;19.63;17.73;;;3.90;1.00;6.00;100339.00;;;;5054759;28;20610;-75
2021/12/06 08:18:25;;;;;;;20.70;18.27;;;3.90;1.00;6.10;100347.00;;;;4986715;28;20844;-77
2021/12/06 08:20:54;;;;;;;22.73;18.03;;;4.00;1.00;6.10;100251.00;;;;5046595;28;20467;-75
2021/12/06 08:23:22;;;;;;;20.70;18.73;;;4.00;1.00;6.10;100345.00;;;;4978061;28;20476;-75
2021/12/06 08:25:53;;;;;;;18.70;16.70;;;4.10;1.00;6.20;100324.00;;;;4977552;28;20489;-77
2021/12/06 08:28:24;;;;;;;21.37;19.13;;;4.20;1.00;6.20;100349.00;;;;5047435;28;20450;-76
2021/12/06 08:30:53;;;;;;;19.80;17.80;;;4.20;1.00;6.20;100343.00;;;;5044521;28;20448;-77
2021/12/06 08:33:24;;;;;;;18.03;16.23;;;4.20;1.00;6.00;100316.00;;;;4977050;28;20527;-76
2021/12/06 08:35:53;;;;;;;18.23;16.50;;;4.20;1.00;6.20;100309.00;;;;4975598;28;20509;-75
2021/12/06 08:38:27;;;;;;;18.13;16.30;;;4.20;1.00;6.30;100312.00;;;;4977017;28;20561;-77
2021/12/06 08:40:58;;;;;;;17.73;16.03;;;4.20;1.00;6.20;100345.00;;;;5043851;28;20455;-77
2021/12/06 08:43:27;;;;;;;17.10;15.33;;;4.30;1.00;6.40;100356.00;;;;4978463;28;20429;-78
2021/12/06 08:46:00;;;;;;;18.40;16.60;;;4.30;1.00;6.40;100342.00;;;;5041617;28;20480;-76
2021/12/06 08:48:35;;;;;;;18.23;16.53;;;4.40;1.00;6.50;100355.00;;;;4960031;28;20436;-75
2021/12/06 08:51:10;;;;;;;17.17;15.67;;;4.50;1.00;6.60;100339.00;;;;4965326;29;20443;-77
2021/12/06 08:53:40;;;;;;;17.90;16.10;;;4.50;1.00;6.60;100355.00;;;;4982831;28;20825;-77
2021/12/06 08:56:09;;;;;;;17.67;15.97;;;4.50;1.00;6.70;100319.00;;;;5052188;28;20472;-77
2021/12/06 08:58:38;;;;;;;18.53;16.83;;;4.60;1.00;6.70;100360.00;;;;4985272;28;20501;-77
2021/12/06 09:01:07;;;;;;;18.70;16.80;;;4.60;1.00;6.70;100360.00;;;;4984634;28;20560;-76
2021/12/06 09:03:37;;;;;;;18.87;17.10;;;4.80;1.00;6.80;100334.00;;;;4974919;28;20444;-76
2021/12/06 09:06:10;;;;;;;19.20;17.10;;;4.60;1.00;6.70;100341.00;;;;4974401;28;20522;-76
2021/12/06 09:08:41;;;;;;;19.10;17.20;;;4.50;1.00;6.50;100228.00;;;;4980721;28;20472;-73
2021/12/06 09:11:11;;;;;;;19.70;17.80;;;4.40;1.00;6.50;100368.00;;;;4981655;28;20464;-76
2021/12/06 09:13:41;;;;;;;19.70;17.77;;;4.40;1.00;6.50;100346.00;;;;5058588;28;20455;-76
2021/12/06 09:16:12;;;;;;;21.17;19.37;;;4.40;1.00;6.40;100333.00;;;;4994229;28;20551;-72
2021/12/06 09:18:45;;;;;;;20.63;18.63;;;4.40;1.00;6.20;100344.00;;;;4993041;28;20439;-74
2021/12/06 09:21:18;;;;;;;21.63;19.43;;;4.40;1.00;6.40;100319.00;;;;4975103;28;20448;-77
2021/12/06 09:23:47;;;;;;;23.00;20.60;;;4.40;1.00;6.30;100211.00;;;;4977343;28;20464;-77
2021/12/06 09:26:16;;;;;;;24.20;21.63;;;4.40;1.00;6.30;100332.00;;;;4970530;28;20483;-73
2021/12/06 09:28:44;;;;;;;22.50;20.30;;;4.40;1.00;6.40;100333.00;;;;4978234;28;20532;-77
2021/12/06 09:31:16;;;;;;;23.37;21.03;;;4.60;1.00;6.40;100303.00;;;;4976918;28;20956;-75
2021/12/06 09:33:46;;;;;;;19.90;18.00;;;4.70;1.00;6.30;100309.00;;;;4985558;28;20464;-77
2021/12/06 09:36:18;;;;;;;22.03;19.30;;;4.70;1.00;6.20;100337.00;;;;4971483;28;20948;-75
2021/12/06 09:38:46;;;;;;;20.87;18.67;;;4.60;1.00;6.20;100312.00;;;;5006699;28;21131;-76
2021/12/06 09:41:26;;;;;;;20.80;18.60;;;4.60;1.00;6.20;100324.00;;;;4973183;28;20460;-77
2021/12/06 09:43:59;;;;;;;19.33;17.33;;;4.60;1.00;6.30;100347.00;;;;4970263;28;20976;-77
2021/12/06 09:46:33;;;;;;;21.73;19.40;;;4.60;1.00;6.30;100322.00;;;;5007132;28;20484;-78
2021/12/06 09:49:07;;;;;;;19.00;17.10;;;4.70;1.00;6.30;100333.00;;;;5040649;28;20880;-75
2021/12/06 09:51:37;;;;;;;21.73;19.60;;;4.70;1.00;6.40;100337.00;;;;4977479;28;20444;-72
2021/12/06 09:54:07;;;;;;;21.27;18.57;;;4.70;1.00;6.40;100343.00;;;;5006850;28;20460;-73
2021/12/06 09:56:40;;;;;;;20.67;18.60;;;4.80;1.00;6.40;100336.00;;;;5050852;28;20525;-75
2021/12/06 09:59:12;;;;;;;21.33;18.67;;;4.90;1.00;6.50;100241.00;;;;5036580;28;20462;-77
2021/12/06 10:01:47;;;;;;;19.83;17.87;;;4.90;1.00;6.60;100338.00;;;;4966928;28;20456;-77
2021/12/06 10:04:19;;;;;;;20.80;18.27;;;5.00;1.00;6.70;100352.00;;;;4975697;28;20459;-77
2021/12/06 10:06:50;;;;;;;19.70;17.80;;;5.00;1.00;6.70;100346.00;;;;4962429;28;20586;-76
2021/12/06 10:09:21;;;;;;;20.20;18.10;;;5.10;1.00;6.80;100294.00;;;;4963906;28;20812;-75
2021/12/06 10:11:50;;;;;;;20.47;18.23;;;5.20;1.00;6.90;100340.00;;;;4962281;28;20499;-77
2021/12/06 10:14:19;;;;;;;20.10;17.40;;;5.20;1.00;7.00;100320.00;;;;5039461;28;20467;-78
2021/12/06 10:16:48;;;;;;;21.53;19.47;;;5.40;1.00;7.00;100357.00;;;;5004539;28;20499;-77
2021/12/06 10:19:18;;;;;;;21.33;18.27;;;5.30;1.00;6.90;100365.00;;;;5022857;28;20448;-76
2021/12/06 10:21:47;;;;;;;21.03;18.87;;;5.20;1.00;7.00;100359.00;;;;4970450;28;20463;-76
2021/12/06 10:24:21;;;;;;;21.43;19.23;;;5.30;1.00;7.10;100325.00;;;;4973502;28;20483;-77
2021/12/06 10:26:51;;;;;;;19.93;17.83;;;5.40;1.00;7.10;100339.00;;;;4978182;28;20895;-77
2021/12/06 10:29:22;;;;;;;21.30;18.57;;;5.40;1.00;7.30;100339.00;;;;5046509;28;20464;-77
2021/12/06 10:31:55;;;;;;;21.10;18.90;;;5.80;1.00;7.60;100336.00;;;;5031148;28;20470;-75
2021/12/06 10:34:27;;;;;;;20.37;18.27;;;5.90;1.00;7.80;100315.00;;;;4971518;28;20470;-77
2021/12/06 10:36:57;;;;;;;23.60;17.90;;;6.00;1.00;7.70;100285.00;;;;4973226;28;20571;-76
2021/12/06 10:39:25;;;;;;;21.67;18.47;;;5.90;1.00;7.70;100352.00;;;;4984161;28;20455;-76
2021/12/06 10:41:55;;;;;;;22.00;19.70;;;5.90;1.00;7.70;100340.00;;;;4988766;28;20545;-76
2021/12/06 10:44:23;;;;;;;20.27;18.23;;;5.90;1.00;7.80;100334.00;;;;4980223;28;20479;-76
2021/12/06 10:46:53;;;;;;;21.07;18.13;;;5.90;1.00;7.90;100361.00;;;;4981609;28;21060;-73
2021/12/06 10:49:26;;;;;;;19.20;17.30;;;6.10;1.00;7.90;100318.00;;;;4966701;28;20474;-77
2021/12/06 10:51:55;;;;;;;20.53;17.20;;;6.30;1.00;8.10;100303.00;;;;5015960;28;20547;-77
2021/12/06 10:54:34;;;;;;;22.17;17.37;;;6.50;1.00;8.20;100356.00;;;;4967307;28;20467;-77
2021/12/06 10:57:07;;;;;;;18.93;16.93;;;6.60;1.00;8.50;100350.00;;;;5036132;28;21050;-76
2021/12/06 10:59:39;;;;;;;19.20;16.53;;;6.80;1.00;8.60;100326.00;;;;4977502;28;20560;-77
2021/12/06 11:02:12;;;;;;;19.33;15.60;;;6.90;1.00;8.80;100337.00;;;;5059384;28;20593;-78
2021/12/06 11:04:43;;;;;;;19.40;17.40;;;7.00;1.00;9.00;100337.00;;;;4979148;28;20550;-80
2021/12/06 11:07:12;;;;;;;19.17;16.10;;;7.00;1.00;9.20;100341.00;;;;4986296;28;20471;-74
2021/12/06 11:09:43;;;;;;;20.30;16.97;;;7.10;1.00;9.30;100322.00;;;;5061127;28;20495;-76
2021/12/06 11:12:20;;;;;;;17.83;15.97;;;7.20;1.00;9.30;100335.00;;;;4993045;28;20463;-76
2021/12/06 11:14:50;;;;;;;17.47;15.60;;;7.40;1.00;9.60;100332.00;;;;5060991;28;20474;-74
2021/12/06 11:17:21;;;;;;;18.40;15.57;;;7.50;1.00;9.80;100326.00;;;;5073538;28;20491;-77
2021/12/06 11:19:52;;;;;;;17.80;15.53;;;7.70;1.00;9.90;100301.00;;;;5008000;28;20475;-75